Time;durP1;ratioP1;P1;durP2;ratioP2;P2;SDS_P1;SDS_P2;PMS_P1;PMS_P2;Temp;Humidity;BMP_temperature;BMP_pressure;BME280_temperature;BME280_humidity;BME280_pressure;Samples;Min_cycle;Max_cycle;Signal;HPM_P1;HPM_P2
2022/09/26 00:01:21;;;;;;;9.85;4.47;;;;;;;8.86;100.00;100874.84;4892527;29;20065;-82
2022/09/26 00:03:50;;;;;;;7.00;4.30;;;;;;;8.84;100.00;100875.09;4889304;29;20040;-82
2022/09/26 00:06:16;;;;;;;5.18;4.28;;;;;;;8.86;100.00;100878.34;4894255;29;20088;-83
2022/09/26 00:08:43;;;;;;;7.95;3.83;;;;;;;8.86;100.00;100865.00;4894393;29;20028;-83
2022/09/26 00:11:10;;;;;;;7.25;4.50;;;;;;;8.91;100.00;100865.06;4893654;29;20521;-83
2022/09/26 00:13:38;;;;;;;7.03;4.35;;;;;;;8.89;100.00;100859.16;4893945;29;20767;-83
2022/09/26 00:16:04;;;;;;;6.53;4.28;;;;;;;8.95;100.00;100854.69;4891261;29;20054;-83
2022/09/26 00:18:32;;;;;;;5.70;4.68;;;;;;;9.02;100.00;100855.34;4893842;29;20096;-83
2022/09/26 00:21:04;;;;;;;5.13;4.27;;;;;;;9.09;100.00;100855.16;4893709;29;20048;-83
2022/09/26 00:23:29;;;;;;;6.38;4.45;;;;;;;9.14;100.00;100852.53;4892872;29;20505;-83
2022/09/26 00:25:57;;;;;;;6.57;4.43;;;;;;;9.15;100.00;100842.66;4894260;29;20123;-83
2022/09/26 00:28:23;;;;;;;7.03;4.40;;;;;;;9.19;100.00;100841.91;4894028;29;20905;-82
2022/09/26 00:30:49;;;;;;;8.75;4.25;;;;;;;9.20;100.00;100837.38;4892464;29;20044;-83
2022/09/26 00:33:14;;;;;;;8.30;4.60;;;;;;;9.22;100.00;100835.28;4892352;29;20032;-82
2022/09/26 00:35:39;;;;;;;8.65;4.50;;;;;;;9.23;100.00;100824.31;4893423;29;20041;-83
2022/09/26 00:38:06;;;;;;;5.33;4.40;;;;;;;9.23;100.00;100827.00;4893928;29;20033;-82
2022/09/26 00:40:31;;;;;;;11.32;4.72;;;;;;;9.27;100.00;100823.81;4893175;29;20443;-83
2022/09/26 00:42:57;;;;;;;7.57;3.90;;;;;;;9.27;100.00;100829.19;4894181;29;20029;-83
2022/09/26 00:45:28;;;;;;;8.63;4.88;;;;;;;9.24;100.00;100825.94;4892658;29;20131;-83
2022/09/26 00:48:03;;;;;;;9.15;5.15;;;;;;;9.24;100.00;100819.75;4895485;29;20043;-83
2022/09/26 00:50:34;;;;;;;9.25;4.80;;;;;;;9.22;100.00;100814.69;4896752;29;20107;-83
2022/09/26 00:53:13;;;;;;;7.72;4.63;;;;;;;9.19;100.00;100809.03;4896721;29;20039;-83
2022/09/26 00:55:45;;;;;;;7.30;4.70;;;;;;;9.27;100.00;100807.78;4897244;29;20041;-83
2022/09/26 00:58:15;;;;;;;11.18;4.30;;;;;;;9.26;100.00;100792.78;4897725;29;20112;-83
2022/09/26 01:00:43;;;;;;;9.82;4.35;;;;;;;9.31;100.00;100795.53;4895133;29;20039;-83
2022/09/26 01:03:09;;;;;;;9.40;4.70;;;;;;;9.42;100.00;100793.75;4897289;29;20045;-83
2022/09/26 01:05:36;;;;;;;8.83;4.13;;;;;;;9.42;100.00;100783.06;4879534;29;20300;-83
2022/09/26 01:08:05;;;;;;;7.72;4.38;;;;;;;9.44;100.00;100770.25;4897445;29;20032;-83
2022/09/26 01:10:31;;;;;;;6.97;4.10;;;;;;;9.52;100.00;100777.84;4896022;29;20050;-83
2022/09/26 01:13:00;;;;;;;5.40;4.30;;;;;;;9.51;100.00;100762.84;4894349;29;20033;-83
2022/09/26 01:15:25;;;;;;;7.60;3.95;;;;;;;9.56;100.00;100762.91;4896921;29;20028;-83
2022/09/26 01:17:51;;;;;;;6.28;3.92;;;;;;;9.53;100.00;100750.81;4896416;29;20064;-83
2022/09/26 01:20:25;;;;;;;6.47;4.03;;;;;;;9.59;100.00;100757.03;4893889;29;20048;-83
2022/09/26 01:23:28;;;;;;;8.07;3.78;;;;;;;9.62;100.00;100743.16;4898165;29;20024;-83
2022/09/26 01:26:30;;;;;;;7.40;3.90;;;;;;;9.66;100.00;100740.78;4896990;29;20040;-83
2022/09/26 01:29:22;;;;;;;7.23;3.70;;;;;;;9.67;100.00;100729.03;4897014;29;20544;-83
2022/09/26 01:35:04;;;;;;;5.28;3.85;;;;;;;9.72;100.00;100731.72;4895508;29;20051;-83
2022/09/26 01:37:51;;;;;;;7.13;3.70;;;;;;;9.67;100.00;100711.09;4895905;29;20039;-82
2022/09/26 01:40:32;;;;;;;7.80;3.88;;;;;;;9.68;100.00;100702.00;4893321;29;20115;-83
2022/09/26 01:42:58;;;;;;;6.40;3.55;;;;;;;9.73;100.00;100706.59;4896320;29;20131;-83
2022/09/26 01:45:32;;;;;;;6.03;3.28;;;;;;;9.71;100.00;100692.66;4894961;29;20543;-83
2022/09/26 01:48:05;;;;;;;9.07;3.40;;;;;;;9.70;100.00;100683.84;4895459;29;20089;-83
2022/09/26 01:50:42;;;;;;;11.43;3.50;;;;;;;9.71;100.00;100687.31;4878042;29;20031;-83
2022/09/26 01:53:37;;;;;;;8.45;3.35;;;;;;;9.73;100.00;100685.19;4881662;29;20115;-82
2022/09/26 01:56:10;;;;;;;7.60;2.83;;;;;;;9.64;100.00;100673.34;4884586;29;20041;-83
2022/09/26 01:58:43;;;;;;;7.80;3.10;;;;;;;9.60;100.00;100653.50;4893420;29;20288;-83
2022/09/26 02:01:11;;;;;;;6.80;3.10;;;;;;;9.61;100.00;100660.47;4895031;29;20040;-83
2022/09/26 02:03:50;;;;;;;9.30;2.90;;;;;;;9.53;100.00;100651.06;4894464;29;20086;-83
2022/09/26 02:06:27;;;;;;;6.32;3.28;;;;;;;9.51;100.00;100651.28;4883469;29;20166;-83
2022/09/26 02:09:16;;;;;;;5.95;2.90;;;;;;;9.44;100.00;100641.88;4895122;29;20043;-82
2022/09/26 02:11:45;;;;;;;11.20;3.05;;;;;;;9.37;100.00;100639.41;4894633;29;20060;-83
2022/09/26 02:14:17;;;;;;;7.75;2.95;;;;;;;9.33;100.00;100631.09;4894687;29;20107;-83
2022/09/26 02:16:49;;;;;;;6.55;2.78;;;;;;;9.31;100.00;100635.09;4896357;29;20096;-82
2022/09/26 02:19:27;;;;;;;7.28;2.60;;;;;;;9.24;100.00;100629.94;4895551;29;20041;-83
2022/09/26 02:21:54;;;;;;;10.53;2.67;;;;;;;9.24;100.00;100628.09;4896575;29;20489;-83
2022/09/26 02:24:22;;;;;;;4.80;2.47;;;;;;;9.25;100.00;100612.84;4893690;29;20312;-83
2022/09/26 02:26:49;;;;;;;4.05;2.60;;;;;;;9.27;100.00;100613.38;4894239;29;20028;-82
2022/09/26 02:29:15;;;;;;;4.85;2.35;;;;;;;9.33;100.00;100614.22;4895039;29;20507;-83
2022/09/26 02:31:54;;;;;;;7.13;2.70;;;;;;;9.34;100.00;100607.81;4895038;29;20036;-83
2022/09/26 02:34:19;;;;;;;9.57;2.80;;;;;;;9.32;100.00;100597.41;4894639;29;20025;-82
2022/09/26 02:36:45;;;;;;;5.93;2.47;;;;;;;9.33;100.00;100587.50;4894470;29;20028;-83
2022/09/26 02:39:10;;;;;;;5.93;2.67;;;;;;;9.32;100.00;100585.88;4895757;29;20037;-83
2022/09/26 02:41:51;;;;;;;6.47;2.50;;;;;;;9.40;100.00;100593.44;4892239;29;20024;-84
2022/09/26 02:44:32;;;;;;;4.97;2.30;;;;;;;9.42;100.00;100585.97;4895065;29;20043;-82
2022/09/26 02:47:17;;;;;;;6.63;2.33;;;;;;;9.44;100.00;100583.84;4894619;29;20827;-83
2022/09/26 02:50:09;;;;;;;5.22;2.35;;;;;;;9.47;100.00;100588.69;4882460;29;20088;-82
2022/09/26 02:53:04;;;;;;;4.95;2.33;;;;;;;9.46;100.00;100584.41;4885223;29;20110;-84
2022/09/26 02:55:43;;;;;;;4.15;2.60;;;;;;;9.52;100.00;100578.00;4890753;29;20052;-84
2022/09/26 02:58:18;;;;;;;4.25;2.13;;;;;;;9.54;100.00;100578.56;4895359;29;20040;-85
2022/09/26 03:00:53;;;;;;;3.70;2.03;;;;;;;9.55;100.00;100571.38;4894429;29;20037;-85
2022/09/26 03:03:29;;;;;;;7.35;2.20;;;;;;;9.54;100.00;100565.19;4894042;29;20040;-84
2022/09/26 03:05:58;;;;;;;7.28;2.10;;;;;;;9.59;100.00;100563.63;4893558;29;20029;-84
2022/09/26 03:08:28;;;;;;;8.52;2.22;;;;;;;9.59;100.00;100559.06;4894306;29;20033;-84
2022/09/26 03:10:58;;;;;;;5.50;2.37;;;;;;;9.59;100.00;100552.94;4892097;29;20033;-84
2022/09/26 03:13:26;;;;;;;7.87;2.43;;;;;;;9.63;100.00;100554.81;4893916;29;20305;-84
2022/09/26 03:15:54;;;;;;;9.65;2.40;;;;;;;9.62;100.00;100544.38;4876971;29;20068;-84
2022/09/26 03:18:27;;;;;;;9.05;2.33;;;;;;;9.65;100.00;100541.19;4894502;29;20039;-84
2022/09/26 03:20:53;;;;;;;3.83;2.05;;;;;;;9.63;100.00;100536.09;4894517;29;20481;-84
2022/09/26 03:23:22;;;;;;;5.03;1.90;;;;;;;9.57;100.00;100534.47;4894786;29;20033;-84
2022/09/26 03:26:00;;;;;;;10.43;2.20;;;;;;;9.55;100.00;100537.38;4894208;29;20033;-84
2022/09/26 03:28:27;;;;;;;8.27;2.50;;;;;;;9.48;100.00;100519.94;4896592;29;20556;-84
2022/09/26 03:30:53;;;;;;;5.35;2.28;;;;;;;9.46;100.00;100522.91;4895309;29;20044;-84
2022/09/26 03:33:18;;;;;;;7.77;2.00;;;;;;;9.37;100.00;100505.69;4894528;29;20032;-83
2022/09/26 03:35:44;;;;;;;8.20;2.30;;;;;;;9.43;100.00;100519.91;4893766;29;20025;-84
2022/09/26 03:38:09;;;;;;;7.00;2.40;;;;;;;9.43;100.00;100518.06;4888908;29;20060;-84
2022/09/26 03:40:35;;;;;;;3.90;2.40;;;;;;;9.40;100.00;100503.31;4891802;29;20099;-85
2022/09/26 03:43:00;;;;;;;8.70;1.98;;;;;;;9.44;100.00;100503.63;4894054;29;20495;-85
2022/09/26 03:45:26;;;;;;;6.10;2.07;;;;;;;9.39;100.00;100490.22;4892464;29;20485;-84
2022/09/26 03:47:56;;;;;;;7.20;1.98;;;;;;;9.42;100.00;100487.03;4894377;29;20028;-84
2022/09/26 03:50:21;;;;;;;3.97;2.13;;;;;;;9.43;100.00;100485.97;4893381;29;20392;-84
2022/09/26 03:52:47;;;;;;;6.30;1.80;;;;;;;9.33;100.00;100473.34;4893516;29;20029;-85
2022/09/26 03:55:12;;;;;;;5.73;1.80;;;;;;;9.37;100.00;100492.34;4893743;29;20057;-84
2022/09/26 03:57:39;;;;;;;9.95;1.98;;;;;;;9.30;100.00;100470.38;4894856;29;20032;-84
2022/09/26 04:00:06;;;;;;;3.90;1.90;;;;;;;9.29;100.00;100472.22;4892059;29;20123;-84
2022/09/26 04:02:33;;;;;;;7.07;2.70;;;;;;;9.28;100.00;100470.63;4894093;29;20308;-84
2022/09/26 04:04:58;;;;;;;8.25;1.73;;;;;;;9.25;100.00;100460.44;4892818;29;20801;-84
2022/09/26 04:07:26;;;;;;;6.97;1.90;;;;;;;9.29;100.00;100455.41;4892184;29;20040;-84
2022/09/26 04:09:51;;;;;;;4.80;1.77;;;;;;;9.21;100.00;100452.13;4891954;29;20901;-84
2022/09/26 04:12:18;;;;;;;4.35;2.20;;;;;;;9.22;100.00;100452.97;4882163;29;20036;-84
2022/09/26 04:14:43;;;;;;;7.20;1.63;;;;;;;9.19;100.00;100438.22;4892445;29;20028;-84
2022/09/26 04:17:09;;;;;;;15.17;1.90;;;;;;;9.16;100.00;100427.25;4891002;29;20555;-84
2022/09/26 04:19:34;;;;;;;5.60;1.60;;;;;;;9.12;100.00;100410.91;4891658;29;20028;-83
2022/09/26 04:22:00;;;;;;;6.93;1.65;;;;;;;9.13;100.00;100417.84;4897129;29;20033;-84
2022/09/26 04:24:25;;;;;;;3.37;1.63;;;;;;;9.14;100.00;100411.44;4897337;29;20042;-83
2022/09/26 04:26:50;;;;;;;5.27;1.60;;;;;;;9.19;100.00;100419.50;4897651;29;20048;-84
2022/09/26 04:29:16;;;;;;;8.23;1.70;;;;;;;9.20;100.00;100417.66;4898251;29;20077;-84
2022/09/26 04:31:41;;;;;;;5.57;1.40;;;;;;;9.19;100.00;100402.66;4895470;29;20033;-83
2022/09/26 04:34:09;;;;;;;3.80;1.90;;;;;;;9.24;100.00;100402.69;4895204;29;20388;-83
2022/09/26 04:36:35;;;;;;;6.78;2.00;;;;;;;9.19;100.00;100387.41;4898068;29;20025;-83
2022/09/26 04:39:00;;;;;;;4.83;1.70;;;;;;;9.21;100.00;100387.97;4897351;29;20520;-83
2022/09/26 04:41:27;;;;;;;3.20;1.90;;;;;;;9.19;100.00;100386.63;4897125;29;20053;-84
2022/09/26 04:43:55;;;;;;;10.70;1.95;;;;;;;9.16;100.00;100379.91;4897789;29;20500;-84
2022/09/26 04:46:22;;;;;;;4.72;1.60;;;;;;;9.20;100.00;100377.56;4894577;29;20346;-84
2022/09/26 04:48:52;;;;;;;4.65;1.80;;;;;;;9.22;100.00;100373.53;4898071;29;20032;-84
2022/09/26 04:51:18;;;;;;;9.60;1.80;;;;;;;9.23;100.00;100358.28;4896775;29;20044;-83
2022/09/26 04:53:44;;;;;;;2.55;1.30;;;;;;;9.19;100.00;100338.50;4897602;29;20028;-84
2022/09/26 04:56:12;;;;;;;4.83;1.50;;;;;;;9.23;100.00;100332.38;4896877;29;20499;-84
2022/09/26 04:58:40;;;;;;;7.05;2.00;;;;;;;9.22;100.00;100313.94;4897777;29;20038;-84
2022/09/26 05:01:08;;;;;;;7.55;1.80;;;;;;;9.29;100.00;100329.72;4896116;29;20636;-84
2022/09/26 05:03:37;;;;;;;5.97;2.10;;;;;;;9.25;100.00;100318.75;4896235;29;20366;-84
2022/09/26 05:06:07;;;;;;;6.30;1.65;;;;;;;9.24;100.00;100320.63;4896776;29;20032;-84
2022/09/26 05:08:34;;;;;;;5.43;1.90;;;;;;;9.24;100.00;100309.94;4897166;29;20485;-83
2022/09/26 05:11:01;;;;;;;7.47;1.60;;;;;;;9.31;100.00;100317.69;4896754;29;20412;-84
2022/09/26 05:13:27;;;;;;;6.47;2.20;;;;;;;9.31;100.00;100317.69;4896863;29;20304;-83
2022/09/26 05:15:54;;;;;;;6.30;2.15;;;;;;;9.27;100.00;100303.25;4893997;29;20044;-84
2022/09/26 05:18:22;;;;;;;3.70;1.80;;;;;;;9.28;100.00;100306.72;4896178;29;20064;-83
2022/09/26 05:20:48;;;;;;;13.13;2.07;;;;;;;9.27;100.00;100284.53;4895610;29;20199;-84
2022/09/26 05:28:42;;;;;;;7.85;2.28;;;;;;;9.17;100.00;100263.13;4897885;29;20043;-84
2022/09/26 05:31:08;;;;;;;7.57;2.50;;;;;;;9.10;100.00;100266.03;4897644;29;20028;-85
2022/09/26 05:33:36;;;;;;;8.03;2.93;;;;;;;9.05;100.00;100260.66;4896622;29;20036;-84
2022/09/26 05:36:02;;;;;;;10.93;2.80;;;;;;;9.11;100.00;100270.31;4895759;29;20360;-84
2022/09/26 05:38:28;;;;;;;8.70;2.88;;;;;;;9.12;100.00;100271.94;4896981;29;20028;-84
2022/09/26 05:40:55;;;;;;;6.73;2.50;;;;;;;9.11;100.00;100266.81;4896443;29;20040;-89
2022/09/26 05:43:23;;;;;;;10.70;2.63;;;;;;;9.11;100.00;100267.66;4896690;29;20937;-90
2022/09/26 05:45:49;;;;;;;9.85;2.80;;;;;;;9.13;100.00;100257.47;4905028;29;20043;-91
2022/09/26 05:48:15;;;;;;;14.52;3.08;;;;;;;9.13;100.00;100259.34;4914667;29;20054;-89
2022/09/26 05:50:40;;;;;;;10.75;3.08;;;;;;;9.18;100.00;100264.72;4907836;29;20028;-89
2022/09/26 05:53:06;;;;;;;9.25;2.88;;;;;;;9.23;100.00;100264.72;4908442;29;20032;-90
2022/09/26 05:55:31;;;;;;;5.77;2.70;;;;;;;9.26;100.00;100260.75;4899919;29;20417;-88
2022/09/26 05:57:59;;;;;;;12.47;3.10;;;;;;;9.26;100.00;100250.84;4897844;29;20064;-90
2022/09/26 06:00:26;;;;;;;11.05;2.80;;;;;;;9.24;100.00;100250.28;4895903;29;20029;-90
2022/09/26 06:03:02;;;;;;;6.78;3.40;;;;;;;9.27;100.00;100257.78;4898455;29;20104;-91
2022/09/26 06:05:28;;;;;;;10.32;2.90;;;;;;;9.24;100.00;100248.44;4896591;29;20025;-89
2022/09/26 06:07:54;;;;;;;11.55;3.28;;;;;;;9.27;100.00;100252.44;4895559;29;20124;-86
2022/09/26 06:10:20;;;;;;;6.93;2.80;;;;;;;9.19;100.00;100223.56;4894163;29;20124;-93
2022/09/26 06:12:46;;;;;;;8.52;3.20;;;;;;;9.29;100.00;100236.16;4892453;29;20393;-89
2022/09/26 06:15:11;;;;;;;7.33;3.07;;;;;;;9.31;100.00;100226.00;4893338;29;20024;-88
2022/09/26 06:17:37;;;;;;;9.48;3.30;;;;;;;9.29;100.00;100212.88;4894138;29;20037;-89
2022/09/26 06:20:03;;;;;;;9.87;2.73;;;;;;;9.32;100.00;100214.22;4896263;29;20033;-89
2022/09/26 06:22:29;;;;;;;6.40;2.80;;;;;;;9.24;100.00;100202.16;4896809;29;20111;-89
2022/09/26 06:24:54;;;;;;;12.60;2.97;;;;;;;9.28;100.00;100199.78;4894154;29;20652;-90
2022/09/26 06:27:21;;;;;;;10.17;3.30;;;;;;;9.38;100.00;100194.44;4895779;29;20037;-89
2022/09/26 06:29:47;;;;;;;11.00;3.45;;;;;;;9.38;100.00;100184.56;4896426;29;20029;-89
2022/09/26 06:32:12;;;;;;;7.85;3.00;;;;;;;9.42;100.00;100176.81;4895824;29;20103;-87
2022/09/26 06:34:37;;;;;;;5.23;2.50;;;;;;;9.48;100.00;100165.06;4888848;29;20181;-87
2022/09/26 06:37:02;;;;;;;7.60;2.20;;;;;;;9.60;100.00;100175.47;4895744;29;20032;-88
2022/09/26 06:39:34;;;;;;;7.47;2.37;;;;;;;9.62;100.00;100157.28;4896356;29;20164;-87
2022/09/26 06:42:04;;;;;;;6.95;2.20;;;;;;;9.66;100.00;100163.72;4877496;29;20032;-88
2022/09/26 06:44:30;;;;;;;8.30;2.40;;;;;;;9.75;100.00;100161.31;4893086;29;20737;-87
2022/09/26 06:46:57;;;;;;;9.43;2.90;;;;;;;9.79;100.00;100149.00;4891725;29;20040;-92
2022/09/26 06:49:22;;;;;;;7.23;2.47;;;;;;;9.92;100.00;100153.00;4894387;29;20300;-91
2022/09/26 06:51:48;;;;;;;9.30;2.50;;;;;;;10.00;100.00;100146.31;4895531;29;20177;-91
2022/09/26 06:54:13;;;;;;;9.27;2.40;;;;;;;10.04;100.00;100131.31;4894711;29;20021;-91
2022/09/26 06:56:38;;;;;;;6.03;2.40;;;;;;;10.09;100.00;100123.25;4886600;29;20045;-95
2022/09/26 06:59:04;;;;;;;6.87;2.10;;;;;;;10.05;100.00;100111.47;4883598;29;20039;-93
2022/09/26 07:01:29;;;;;;;7.00;2.03;;;;;;;10.08;100.00;100108.25;4874213;29;20128;-93
2022/09/26 07:03:54;;;;;;;6.60;2.10;;;;;;;10.13;100.00;100102.13;4897032;29;20052;-92
2022/09/26 07:06:20;;;;;;;7.78;2.20;;;;;;;10.19;100.00;100109.03;4895730;29;20031;-93
2022/09/26 07:08:45;;;;;;;13.37;2.50;;;;;;;10.27;100.00;100103.13;4895961;29;20032;-91
2022/09/26 07:11:12;;;;;;;4.67;1.87;;;;;;;10.36;100.00;100100.69;4895342;29;20032;-90
2022/09/26 07:13:38;;;;;;;7.13;2.15;;;;;;;10.42;100.00;100099.59;4895834;29;20032;-91
2022/09/26 07:16:03;;;;;;;7.00;2.00;;;;;;;10.47;100.00;100095.31;4896183;29;20029;-91
2022/09/26 07:18:28;;;;;;;7.15;2.20;;;;;;;10.48;100.00;100088.88;4896582;29;20173;-90
2022/09/26 07:20:54;;;;;;;7.97;2.00;;;;;;;10.45;100.00;100072.28;4890976;29;20040;-92
2022/09/26 07:23:20;;;;;;;4.18;1.90;;;;;;;10.53;100.00;100073.59;4882281;29;20032;-91
2022/09/26 07:25:47;;;;;;;7.90;2.10;;;;;;;10.58;100.00;100078.13;4896229;29;20033;-91
2022/09/26 07:28:13;;;;;;;4.90;1.73;;;;;;;10.56;100.00;100062.31;4895156;29;20389;-91
2022/09/26 07:30:38;;;;;;;6.68;2.05;;;;;;;10.57;100.00;100065.81;4895301;29;20033;-90
2022/09/26 07:33:04;;;;;;;5.77;1.67;;;;;;;10.56;100.00;100066.88;4894171;29;21851;-91
2022/09/26 07:35:32;;;;;;;4.32;1.85;;;;;;;10.49;100.00;100064.50;4878513;29;20037;-90
2022/09/26 07:37:58;;;;;;;7.18;1.88;;;;;;;10.44;100.00;100062.63;4877206;29;20056;-93
2022/09/26 07:40:24;;;;;;;7.57;1.90;;;;;;;10.53;100.00;100067.44;4880492;29;20499;-92
2022/09/26 07:42:51;;;;;;;9.63;1.90;;;;;;;10.54;100.00;100069.03;4894756;29;20138;-90
2022/09/26 07:45:16;;;;;;;11.00;2.60;;;;;;;10.60;100.00;100066.06;4895609;29;21063;-90
2022/09/26 07:50:37;;;;;;;5.85;1.95;;;;;;;10.72;100.00;100057.69;4827391;29;20498;-92
2022/09/26 07:53:03;;;;;;;6.60;2.03;;;;;;;10.75;100.00;100053.63;4897095;29;20024;-94
2022/09/26 07:55:28;;;;;;;3.47;1.60;;;;;;;10.81;100.00;100051.72;4892119;29;20088;-91
2022/09/26 07:57:54;;;;;;;6.73;1.90;;;;;;;10.79;100.00;100049.34;4895845;29;20477;-91
2022/09/26 08:00:20;;;;;;;5.95;2.00;;;;;;;10.86;100.00;100051.69;4895656;29;20032;-92
2022/09/26 08:02:46;;;;;;;5.37;1.87;;;;;;;10.93;100.00;100043.34;4899440;29;20041;-90
2022/09/26 08:05:18;;;;;;;5.93;1.90;;;;;;;11.01;100.00;100062.31;4896388;29;20300;-91
2022/09/26 08:07:45;;;;;;;5.78;1.88;;;;;;;11.08;100.00;100045.91;4897321;29;20067;-91
2022/09/26 08:10:19;;;;;;;4.60;1.80;;;;;;;11.10;99.97;100037.59;4898598;29;20025;-91
2022/09/26 08:12:46;;;;;;;6.75;1.52;;;;;;;11.20;99.40;100026.78;4895039;29;20130;-92
2022/09/26 08:15:11;;;;;;;6.20;1.83;;;;;;;11.24;99.87;100013.59;4895842;29;20063;-92
2022/09/26 08:17:38;;;;;;;4.97;1.73;;;;;;;11.27;99.00;100027.25;4894313;29;20159;-90
2022/09/26 08:20:03;;;;;;;4.15;1.80;;;;;;;11.24;99.32;100022.47;4890773;29;20108;-93
2022/09/26 08:22:29;;;;;;;7.10;1.83;;;;;;;11.21;99.41;100017.66;4879615;29;20045;-93
2022/09/26 08:24:57;;;;;;;6.83;1.50;;;;;;;11.27;99.10;100008.47;4896628;29;20041;-93
2022/09/26 08:27:23;;;;;;;5.35;1.50;;;;;;;11.31;99.14;100020.25;4899296;29;20028;-93
2022/09/26 08:29:49;;;;;;;5.07;1.70;;;;;;;11.30;99.74;100015.16;4901852;29;20069;-91
2022/09/26 08:32:16;;;;;;;5.25;1.63;;;;;;;11.16;99.05;100015.00;4901090;29;20129;-92
2022/09/26 08:34:42;;;;;;;5.97;2.33;;;;;;;11.15;99.63;100024.13;4916873;29;20126;-95
2022/09/26 08:37:07;;;;;;;5.45;1.50;;;;;;;11.11;100.00;100017.75;4915630;29;20020;-93
2022/09/26 08:39:33;;;;;;;6.10;1.73;;;;;;;11.01;100.00;100008.69;4901001;29;20115;-94
2022/09/26 08:42:27;;;;;;;7.27;1.70;;;;;;;11.06;100.00;100008.66;4897750;29;20500;-94
2022/09/26 08:46:23;;;;;;;4.47;1.60;;;;;;;11.12;100.00;100004.03;4896141;29;20690;-93
2022/09/26 08:48:04;;;;;;;5.63;2.00;;;;;;;11.27;100.00;100011.16;4891777;29;20096;-96
2022/09/26 08:50:48;;;;;;;5.53;1.77;;;;;;;11.42;100.00;100007.53;4888962;29;20047;-95
2022/09/26 08:53:25;;;;;;;6.00;1.93;;;;;;;11.47;99.40;100009.38;4895761;29;20400;-94
2022/09/26 08:55:55;;;;;;;5.35;1.60;;;;;;;11.52;99.24;100010.13;4890799;29;20054;-93
2022/09/26 08:58:37;;;;;;;3.17;1.52;;;;;;;11.70;99.20;99996.25;4894356;29;20037;-94
2022/09/26 09:01:10;;;;;;;5.32;1.50;;;;;;;11.80;97.44;99998.81;4893628;29;20111;-94
2022/09/26 09:03:46;;;;;;;5.05;1.67;;;;;;;11.80;97.28;99983.50;4891149;29;20020;-92
2022/09/26 09:06:13;;;;;;;7.15;1.75;;;;;;;11.85;97.26;99990.72;4896353;29;20049;-91
2022/09/26 09:08:43;;;;;;;6.40;1.67;;;;;;;11.94;96.81;99986.31;4887414;29;20089;-90
2022/09/26 09:11:17;;;;;;;4.38;1.60;;;;;;;12.00;96.29;99994.34;4895330;29;20041;-89
2022/09/26 09:13:52;;;;;;;6.70;1.92;;;;;;;12.05;98.17;99983.53;4899337;29;20036;-91
2022/09/26 09:16:39;;;;;;;5.50;1.83;;;;;;;11.90;99.19;99987.97;4889929;29;20045;-89
2022/09/26 09:19:19;;;;;;;7.63;2.07;;;;;;;11.76;100.00;99984.38;4898731;29;20315;-89
2022/09/26 09:22:17;;;;;;;8.50;1.75;;;;;;;11.69;100.00;99979.34;4894487;29;20374;-91
2022/09/26 09:24:55;;;;;;;5.30;2.00;;;;;;;11.65;100.00;99981.00;4892698;29;20044;-89
2022/09/26 09:27:39;;;;;;;9.27;2.50;;;;;;;11.70;100.00;99953.31;4896731;29;20031;-90
2022/09/26 09:30:13;;;;;;;6.57;2.55;;;;;;;11.89;100.00;99958.72;4897143;29;20094;-91
2022/09/26 09:32:52;;;;;;;6.20;2.20;;;;;;;11.84;100.00;99953.41;4865450;29;20058;-91
2022/09/26 09:35:24;;;;;;;8.60;2.22;;;;;;;11.85;100.00;99949.66;4895179;29;20039;-93
2022/09/26 09:37:52;;;;;;;10.30;2.28;;;;;;;11.82;100.00;99954.50;4897770;29;20044;-89
2022/09/26 09:40:34;;;;;;;3.67;2.03;;;;;;;11.71;100.00;99938.81;4898937;29;20033;-90
2022/09/26 09:43:05;;;;;;;6.53;1.97;;;;;;;11.58;100.00;99938.41;4898780;29;20088;-90
2022/09/26 09:45:46;;;;;;;6.47;1.93;;;;;;;11.63;100.00;99918.78;4897198;29;20281;-90
2022/09/26 09:48:12;;;;;;;8.25;2.45;;;;;;;11.66;100.00;99921.69;4897633;29;20477;-90
2022/09/26 09:50:59;;;;;;;5.55;2.38;;;;;;;11.62;100.00;99922.53;4896605;29;20020;-90
2022/09/26 09:53:24;;;;;;;6.78;1.95;;;;;;;11.56;100.00;99915.66;4897722;29;20445;-91
2022/09/26 09:56:04;;;;;;;5.47;2.13;;;;;;;11.48;100.00;99892.94;4898121;29;20081;-91
2022/09/26 09:58:40;;;;;;;5.82;2.22;;;;;;;11.47;100.00;99896.72;4898733;29;20031;-91
2022/09/26 10:01:13;;;;;;;6.78;2.58;;;;;;;11.61;100.00;99897.59;4898745;29;20069;-92
2022/09/26 10:03:38;;;;;;;7.72;2.40;;;;;;;11.57;100.00;99893.09;4900153;29;20047;-91
2022/09/26 10:06:04;;;;;;;5.28;2.80;;;;;;;11.49;100.00;99884.59;4898009;29;20037;-94
2022/09/26 10:08:36;;;;;;;6.60;2.80;;;;;;;11.47;100.00;99883.28;4897061;29;20052;-92
2022/09/26 10:11:22;;;;;;;5.55;2.65;;;;;;;11.57;100.00;99880.47;4880262;29;20035;-92
2022/09/26 10:13:52;;;;;;;6.90;2.83;;;;;;;11.76;100.00;99871.66;4879745;29;20119;-92
2022/09/26 10:16:17;;;;;;;8.40;2.80;;;;;;;11.99;100.00;99874.59;4877318;29;20044;-92
2022/09/26 10:19:05;;;;;;;6.80;2.60;;;;;;;12.04;100.00;99871.84;4877774;29;20488;-91
2022/09/26 10:21:39;;;;;;;10.77;2.80;;;;;;;11.91;100.00;99866.06;4861564;29;20059;-92
2022/09/26 10:24:21;;;;;;;6.30;2.65;;;;;;;11.93;100.00;99855.06;4878382;29;20390;-91
2022/09/26 10:26:48;;;;;;;8.25;2.35;;;;;;;11.96;100.00;99851.75;4896814;29;20092;-93
2022/09/26 10:29:33;;;;;;;9.57;2.30;;;;;;;11.95;100.00;99850.19;4895397;29;20040;-92
2022/09/26 10:32:00;;;;;;;4.40;2.20;;;;;;;11.97;100.00;99853.38;4896739;29;20374;-92
2022/09/26 10:34:28;;;;;;;3.75;2.47;;;;;;;12.00;100.00;99852.03;4897064;29;20024;-93
2022/09/26 10:36:54;;;;;;;7.17;2.20;;;;;;;11.93;100.00;99836.25;4897278;29;20028;-92
2022/09/26 10:42:23;;;;;;;6.18;2.83;;;;;;;11.69;100.00;99847.84;4897129;29;20049;-90
2022/09/26 10:44:49;;;;;;;6.30;2.38;;;;;;;11.64;100.00;99843.38;4897845;29;20063;-90
2022/09/26 10:47:20;;;;;;;7.35;2.67;;;;;;;11.61;100.00;99838.56;4888176;29;20567;-89
2022/09/26 10:49:51;;;;;;;6.57;2.60;;;;;;;11.65;100.00;99817.31;4894252;29;20037;-90
2022/09/26 10:52:27;;;;;;;6.97;2.60;;;;;;;11.69;100.00;99839.81;4894375;29;20040;-92
2022/09/26 10:54:58;;;;;;;7.78;2.75;;;;;;;11.69;100.00;99822.91;4874106;29;20064;-89
2022/09/26 10:57:32;;;;;;;4.63;2.63;;;;;;;11.54;100.00;99810.50;4896700;29;20032;-91
2022/09/26 11:00:00;;;;;;;9.57;3.10;;;;;;;11.80;100.00;99825.16;4896386;29;20777;-90
2022/09/26 11:02:27;;;;;;;7.05;3.33;;;;;;;11.77;100.00;99812.34;4895431;29;20027;-89
2022/09/26 11:07:46;;;;;;;8.15;2.72;;;;;;;11.75;100.00;99821.75;4883502;29;20108;-91
2022/09/26 11:10:13;;;;;;;9.40;2.65;;;;;;;11.88;100.00;99815.63;4896107;29;20097;-90
2022/09/26 11:12:55;;;;;;;6.38;2.58;;;;;;;11.94;100.00;99809.13;4879656;29;20036;-91
2022/09/26 11:15:22;;;;;;;11.75;2.72;;;;;;;11.90;100.00;99821.53;4895977;29;20413;-90
2022/09/26 11:17:50;;;;;;;6.55;2.80;;;;;;;11.84;100.00;99822.69;4896383;29;20024;-91
2022/09/26 11:20:49;;;;;;;10.90;3.00;;;;;;;11.88;100.00;99815.63;4892839;29;20043;-90
2022/09/26 11:23:30;;;;;;;5.80;2.93;;;;;;;11.90;100.00;99812.69;4896717;29;20035;-90
2022/09/26 11:26:22;;;;;;;6.27;2.60;;;;;;;11.83;100.00;99799.63;4899797;29;20285;-91
2022/09/26 11:28:50;;;;;;;11.73;3.20;;;;;;;11.69;100.00;99804.09;4902970;29;20099;-90
2022/09/26 11:31:39;;;;;;;7.55;2.83;;;;;;;11.50;100.00;99807.59;4895851;29;20020;-90
2022/09/26 11:34:12;;;;;;;4.75;2.65;;;;;;;11.34;100.00;99802.41;4895875;29;20033;-90
2022/09/26 11:36:49;;;;;;;7.57;2.80;;;;;;;11.34;100.00;99788.22;4893513;29;20561;-90
2022/09/26 11:39:53;;;;;;;8.75;3.20;;;;;;;11.32;100.00;99793.84;4899589;29;20596;-89
2022/09/26 11:42:30;;;;;;;6.93;3.45;;;;;;;11.25;100.00;99788.06;4896929;29;20028;-91
2022/09/26 11:44:58;;;;;;;5.40;2.80;;;;;;;11.17;100.00;99776.09;4898704;29;20043;-90
2022/09/26 11:47:39;;;;;;;9.32;3.20;;;;;;;11.23;100.00;99790.22;4879247;29;20028;-90
2022/09/26 11:50:26;;;;;;;7.37;2.90;;;;;;;11.16;100.00;99768.31;4895263;29;20071;-91
2022/09/26 11:53:15;;;;;;;6.30;2.70;;;;;;;11.24;100.00;99770.38;4894708;29;20812;-90
2022/09/26 11:56:05;;;;;;;5.53;2.85;;;;;;;11.29;100.00;99778.38;4895842;29;20060;-91
2022/09/26 11:58:45;;;;;;;6.10;3.20;;;;;;;11.32;100.00;99777.78;4895386;29;20032;-91